sensor_id;sensor_type;location;lat;lon;timestamp;temperature;humidity
68480;DHT22;55469;48.934;12.050;2022-07-06T00:01:51;26.70;45.00
68480;DHT22;55469;48.934;12.050;2022-07-06T00:04:18;26.70;45.00
68480;DHT22;55469;48.934;12.050;2022-07-06T00:06:44;26.70;44.90
68480;DHT22;55469;48.934;12.050;2022-07-06T00:09:10;26.70;45.10
68480;DHT22;55469;48.934;12.050;2022-07-06T00:11:36;26.60;45.10
68480;DHT22;55469;48.934;12.050;2022-07-06T00:14:02;26.60;45.20
68480;DHT22;55469;48.934;12.050;2022-07-06T00:16:28;26.60;45.20
68480;DHT22;55469;48.934;12.050;2022-07-06T00:18:54;26.60;45.20
68480;DHT22;55469;48.934;12.050;2022-07-06T00:21:20;26.60;45.30
68480;DHT22;55469;48.934;12.050;2022-07-06T00:23:46;26.50;45.20
68480;DHT22;55469;48.934;12.050;2022-07-06T00:26:12;26.50;45.20
68480;DHT22;55469;48.934;12.050;2022-07-06T00:28:38;26.50;45.40
68480;DHT22;55469;48.934;12.050;2022-07-06T00:31:04;26.40;45.20
68480;DHT22;55469;48.934;12.050;2022-07-06T00:33:31;26.40;45.20
68480;DHT22;55469;48.934;12.050;2022-07-06T00:35:57;26.40;45.30
68480;DHT22;55469;48.934;12.050;2022-07-06T00:38:23;26.40;45.30
68480;DHT22;55469;48.934;12.050;2022-07-06T00:40:49;26.30;45.20
68480;DHT22;55469;48.934;12.050;2022-07-06T00:43:15;26.30;45.20
68480;DHT22;55469;48.934;12.050;2022-07-06T00:45:40;26.30;45.40
68480;DHT22;55469;48.934;12.050;2022-07-06T00:48:06;26.30;45.40
68480;DHT22;55469;48.934;12.050;2022-07-06T00:50:33;26.30;45.40
68480;DHT22;55469;48.934;12.050;2022-07-06T00:53:03;26.20;45.30
68480;DHT22;55469;48.934;12.050;2022-07-06T00:55:32;26.30;45.40
68480;DHT22;55469;48.934;12.050;2022-07-06T00:58:03;26.20;45.30
68480;DHT22;55469;48.934;12.050;2022-07-06T01:00:31;26.10;45.40
68480;DHT22;55469;48.934;12.050;2022-07-06T01:02:57;26.10;45.30
68480;DHT22;55469;48.934;12.050;2022-07-06T01:05:23;26.10;45.40
68480;DHT22;55469;48.934;12.050;2022-07-06T01:07:51;26.10;45.40
68480;DHT22;55469;48.934;12.050;2022-07-06T01:10:19;26.10;45.50
68480;DHT22;55469;48.934;12.050;2022-07-06T01:12:46;26.00;45.40
68480;DHT22;55469;48.934;12.050;2022-07-06T01:15:18;26.00;45.60
68480;DHT22;55469;48.934;12.050;2022-07-06T01:17:47;26.00;45.60
68480;DHT22;55469;48.934;12.050;2022-07-06T01:20:17;26.00;45.70
68480;DHT22;55469;48.934;12.050;2022-07-06T01:22:45;26.00;45.70
68480;DHT22;55469;48.934;12.050;2022-07-06T01:25:13;25.90;45.70
68480;DHT22;55469;48.934;12.050;2022-07-06T01:27:40;25.90;45.70
68480;DHT22;55469;48.934;12.050;2022-07-06T01:30:11;25.90;45.80
68480;DHT22;55469;48.934;12.050;2022-07-06T01:32:39;25.80;45.60
68480;DHT22;55469;48.934;12.050;2022-07-06T01:35:07;25.80;45.70
68480;DHT22;55469;48.934;12.050;2022-07-06T01:37:35;25.80;45.70
68480;DHT22;55469;48.934;12.050;2022-07-06T01:40:05;25.70;45.80
68480;DHT22;55469;48.934;12.050;2022-07-06T01:42:33;25.80;45.80
68480;DHT22;55469;48.934;12.050;2022-07-06T01:44:59;25.70;45.90
68480;DHT22;55469;48.934;12.050;2022-07-06T01:47:25;25.70;45.80
68480;DHT22;55469;48.934;12.050;2022-07-06T01:49:51;25.70;45.90
68480;DHT22;55469;48.934;12.050;2022-07-06T01:52:17;25.60;45.90
68480;DHT22;55469;48.934;12.050;2022-07-06T01:54:43;25.60;45.90
68480;DHT22;55469;48.934;12.050;2022-07-06T01:57:09;25.60;45.90
68480;DHT22;55469;48.934;12.050;2022-07-06T01:59:35;25.60;45.90
68480;DHT22;55469;48.934;12.050;2022-07-06T02:02:01;25.50;45.90
68480;DHT22;55469;48.934;12.050;2022-07-06T02:04:27;25.50;45.90
68480;DHT22;55469;48.934;12.050;2022-07-06T02:06:53;25.50;46.00
68480;DHT22;55469;48.934;12.050;2022-07-06T02:09:18;25.40;46.00
68480;DHT22;55469;48.934;12.050;2022-07-06T02:11:44;25.40;46.00
68480;DHT22;55469;48.934;12.050;2022-07-06T02:14:10;25.40;46.10
68480;DHT22;55469;48.934;12.050;2022-07-06T02:16:36;25.40;46.10
68480;DHT22;55469;48.934;12.050;2022-07-06T02:19:01;25.40;46.10
68480;DHT22;55469;48.934;12.050;2022-07-06T02:21:28;25.30;46.00
68480;DHT22;55469;48.934;12.050;2022-07-06T02:23:56;25.30;46.10
68480;DHT22;55469;48.934;12.050;2022-07-06T02:26:22;25.30;46.10
68480;DHT22;55469;48.934;12.050;2022-07-06T02:28:47;25.30;46.10
68480;DHT22;55469;48.934;12.050;2022-07-06T02:31:14;25.20;46.10
68480;DHT22;55469;48.934;12.050;2022-07-06T02:33:40;25.20;46.20
68480;DHT22;55469;48.934;12.050;2022-07-06T02:36:07;25.20;46.20
68480;DHT22;55469;48.934;12.050;2022-07-06T02:38:32;25.20;46.30
68480;DHT22;55469;48.934;12.050;2022-07-06T02:40:58;25.10;46.30
68480;DHT22;55469;48.934;12.050;2022-07-06T02:43:24;25.10;46.30
68480;DHT22;55469;48.934;12.050;2022-07-06T02:45:50;25.10;46.40
68480;DHT22;55469;48.934;12.050;2022-07-06T02:48:16;25.00;46.40
68480;DHT22;55469;48.934;12.050;2022-07-06T02:50:43;25.00;46.40
68480;DHT22;55469;48.934;12.050;2022-07-06T02:53:08;25.00;47.40
68480;DHT22;55469;48.934;12.050;2022-07-06T02:55:34;25.00;46.40
68480;DHT22;55469;48.934;12.050;2022-07-06T02:58:00;25.00;46.50
68480;DHT22;55469;48.934;12.050;2022-07-06T03:00:26;24.90;46.50
68480;DHT22;55469;48.934;12.050;2022-07-06T03:02:52;24.90;46.50
68480;DHT22;55469;48.934;12.050;2022-07-06T03:05:17;24.80;46.50
68480;DHT22;55469;48.934;12.050;2022-07-06T03:07:43;24.80;46.50
68480;DHT22;55469;48.934;12.050;2022-07-06T03:10:09;24.80;46.50
68480;DHT22;55469;48.934;12.050;2022-07-06T03:12:34;24.80;46.50
68480;DHT22;55469;48.934;12.050;2022-07-06T03:15:00;24.80;46.60
68480;DHT22;55469;48.934;12.050;2022-07-06T03:17:26;24.70;46.50
68480;DHT22;55469;48.934;12.050;2022-07-06T03:19:51;24.70;46.60
68480;DHT22;55469;48.934;12.050;2022-07-06T03:22:18;24.70;46.60
68480;DHT22;55469;48.934;12.050;2022-07-06T03:24:44;24.60;46.70
68480;DHT22;55469;48.934;12.050;2022-07-06T03:27:10;24.60;46.60
68480;DHT22;55469;48.934;12.050;2022-07-06T03:29:35;24.60;46.70
68480;DHT22;55469;48.934;12.050;2022-07-06T03:32:01;24.60;46.70
68480;DHT22;55469;48.934;12.050;2022-07-06T03:34:27;24.50;46.70
68480;DHT22;55469;48.934;12.050;2022-07-06T03:36:53;24.50;46.80
68480;DHT22;55469;48.934;12.050;2022-07-06T03:39:19;24.50;46.80
68480;DHT22;55469;48.934;12.050;2022-07-06T03:41:45;24.50;46.80
68480;DHT22;55469;48.934;12.050;2022-07-06T03:44:10;24.40;46.90
68480;DHT22;55469;48.934;12.050;2022-07-06T03:46:36;24.40;46.80
68480;DHT22;55469;48.934;12.050;2022-07-06T03:49:02;24.40;46.90
68480;DHT22;55469;48.934;12.050;2022-07-06T03:51:28;24.40;46.90
68480;DHT22;55469;48.934;12.050;2022-07-06T03:53:53;24.30;47.10
68480;DHT22;55469;48.934;12.050;2022-07-06T03:56:19;24.30;47.10
68480;DHT22;55469;48.934;12.050;2022-07-06T03:58:59;24.30;48.20
68480;DHT22;55469;48.934;12.050;2022-07-06T04:01:26;24.30;47.20
68480;DHT22;55469;48.934;12.050;2022-07-06T04:03:52;24.30;47.20
68480;DHT22;55469;48.934;12.050;2022-07-06T04:06:18;24.30;47.20
68480;DHT22;55469;48.934;12.050;2022-07-06T04:08:43;24.20;47.10
68480;DHT22;55469;48.934;12.050;2022-07-06T04:11:09;24.20;47.20
68480;DHT22;55469;48.934;12.050;2022-07-06T04:13:35;24.20;47.30
68480;DHT22;55469;48.934;12.050;2022-07-06T04:16:02;24.10;47.30
68480;DHT22;55469;48.934;12.050;2022-07-06T04:18:28;24.10;47.40
68480;DHT22;55469;48.934;12.050;2022-07-06T04:20:54;24.10;47.50
68480;DHT22;55469;48.934;12.050;2022-07-06T04:23:20;24.10;47.50
68480;DHT22;55469;48.934;12.050;2022-07-06T04:25:45;24.00;47.50
68480;DHT22;55469;48.934;12.050;2022-07-06T04:28:11;24.00;47.80
68480;DHT22;55469;48.934;12.050;2022-07-06T04:30:37;24.00;47.70
68480;DHT22;55469;48.934;12.050;2022-07-06T04:33:03;23.90;47.80
68480;DHT22;55469;48.934;12.050;2022-07-06T04:35:28;23.90;47.90
68480;DHT22;55469;48.934;12.050;2022-07-06T04:37:54;24.00;48.00
68480;DHT22;55469;48.934;12.050;2022-07-06T04:40:20;23.90;48.00
68480;DHT22;55469;48.934;12.050;2022-07-06T04:42:46;23.90;48.10
68480;DHT22;55469;48.934;12.050;2022-07-06T04:45:13;23.80;48.10
68480;DHT22;55469;48.934;12.050;2022-07-06T04:47:42;23.80;48.20
68480;DHT22;55469;48.934;12.050;2022-07-06T04:50:09;23.80;48.20
68480;DHT22;55469;48.934;12.050;2022-07-06T04:52:35;23.80;48.20
68480;DHT22;55469;48.934;12.050;2022-07-06T04:55:01;23.80;48.40
68480;DHT22;55469;48.934;12.050;2022-07-06T04:57:29;23.70;48.30
68480;DHT22;55469;48.934;12.050;2022-07-06T04:59:55;23.70;48.30
68480;DHT22;55469;48.934;12.050;2022-07-06T05:02:22;23.70;48.40
68480;DHT22;55469;48.934;12.050;2022-07-06T05:04:47;23.70;48.40
68480;DHT22;55469;48.934;12.050;2022-07-06T05:07:13;23.60;48.60
68480;DHT22;55469;48.934;12.050;2022-07-06T05:09:39;23.60;48.60
68480;DHT22;55469;48.934;12.050;2022-07-06T05:12:06;23.60;48.60
68480;DHT22;55469;48.934;12.050;2022-07-06T05:14:33;23.50;48.60
68480;DHT22;55469;48.934;12.050;2022-07-06T05:16:59;23.60;48.80
68480;DHT22;55469;48.934;12.050;2022-07-06T05:19:25;23.50;48.70
68480;DHT22;55469;48.934;12.050;2022-07-06T05:21:51;23.50;48.70
68480;DHT22;55469;48.934;12.050;2022-07-06T05:24:16;23.50;48.70
68480;DHT22;55469;48.934;12.050;2022-07-06T05:26:42;23.40;48.90
68480;DHT22;55469;48.934;12.050;2022-07-06T05:29:08;23.40;48.90
68480;DHT22;55469;48.934;12.050;2022-07-06T05:31:34;23.40;49.00
68480;DHT22;55469;48.934;12.050;2022-07-06T05:33:59;23.40;49.00
68480;DHT22;55469;48.934;12.050;2022-07-06T05:36:29;23.40;49.00
68480;DHT22;55469;48.934;12.050;2022-07-06T05:38:56;23.40;49.20
68480;DHT22;55469;48.934;12.050;2022-07-06T05:41:21;23.40;49.10
68480;DHT22;55469;48.934;12.050;2022-07-06T05:43:47;23.30;49.20
68480;DHT22;55469;48.934;12.050;2022-07-06T05:46:13;23.30;49.30
68480;DHT22;55469;48.934;12.050;2022-07-06T05:48:39;23.30;49.30
68480;DHT22;55469;48.934;12.050;2022-07-06T05:51:23;23.20;49.20
68480;DHT22;55469;48.934;12.050;2022-07-06T05:53:49;23.20;49.20
68480;DHT22;55469;48.934;12.050;2022-07-06T05:56:15;23.20;49.30
68480;DHT22;55469;48.934;12.050;2022-07-06T05:58:40;23.10;49.10
68480;DHT22;55469;48.934;12.050;2022-07-06T06:01:06;23.10;49.20
68480;DHT22;55469;48.934;12.050;2022-07-06T06:03:33;23.00;49.00
68480;DHT22;55469;48.934;12.050;2022-07-06T06:05:59;23.00;48.70
68480;DHT22;55469;48.934;12.050;2022-07-06T06:08:25;23.00;48.80
68480;DHT22;55469;48.934;12.050;2022-07-06T06:10:52;23.00;48.80
68480;DHT22;55469;48.934;12.050;2022-07-06T06:13:18;22.90;49.00
68480;DHT22;55469;48.934;12.050;2022-07-06T06:15:44;22.90;48.90
68480;DHT22;55469;48.934;12.050;2022-07-06T06:18:10;22.90;48.90
68480;DHT22;55469;48.934;12.050;2022-07-06T06:20:36;22.90;49.00
68480;DHT22;55469;48.934;12.050;2022-07-06T06:23:02;22.90;48.90
68480;DHT22;55469;48.934;12.050;2022-07-06T06:25:36;22.90;49.00
68480;DHT22;55469;48.934;12.050;2022-07-06T06:28:05;22.90;49.00
68480;DHT22;55469;48.934;12.050;2022-07-06T06:30:36;22.90;48.80
68480;DHT22;55469;48.934;12.050;2022-07-06T06:33:11;22.80;49.20
68480;DHT22;55469;48.934;12.050;2022-07-06T06:35:51;22.90;49.20
68480;DHT22;55469;48.934;12.050;2022-07-06T06:38:19;22.80;49.10
68480;DHT22;55469;48.934;12.050;2022-07-06T06:40:45;22.80;49.10
68480;DHT22;55469;48.934;12.050;2022-07-06T06:43:12;22.80;49.00
68480;DHT22;55469;48.934;12.050;2022-07-06T06:45:38;22.80;49.20
68480;DHT22;55469;48.934;12.050;2022-07-06T06:48:04;22.80;49.10
68480;DHT22;55469;48.934;12.050;2022-07-06T06:50:30;22.80;49.20
68480;DHT22;55469;48.934;12.050;2022-07-06T06:52:55;22.80;49.10
68480;DHT22;55469;48.934;12.050;2022-07-06T06:55:21;22.80;49.40
68480;DHT22;55469;48.934;12.050;2022-07-06T06:57:47;22.80;49.40
68480;DHT22;55469;48.934;12.050;2022-07-06T07:00:18;22.80;49.40
68480;DHT22;55469;48.934;12.050;2022-07-06T07:02:44;22.80;49.60
68480;DHT22;55469;48.934;12.050;2022-07-06T07:05:10;22.70;49.60
68480;DHT22;55469;48.934;12.050;2022-07-06T07:07:38;22.70;49.50
68480;DHT22;55469;48.934;12.050;2022-07-06T07:10:05;22.70;49.60
68480;DHT22;55469;48.934;12.050;2022-07-06T07:12:34;22.70;49.70
68480;DHT22;55469;48.934;12.050;2022-07-06T07:15:00;22.70;49.60
68480;DHT22;55469;48.934;12.050;2022-07-06T07:17:38;22.70;50.90
68480;DHT22;55469;48.934;12.050;2022-07-06T07:31:25;22.70;50.20
68480;DHT22;55469;48.934;12.050;2022-07-06T07:33:59;22.60;50.20
68480;DHT22;55469;48.934;12.050;2022-07-06T07:36:28;22.60;50.20
68480;DHT22;55469;48.934;12.050;2022-07-06T07:39:17;22.60;50.10
68480;DHT22;55469;48.934;12.050;2022-07-06T07:41:43;22.60;50.10
68480;DHT22;55469;48.934;12.050;2022-07-06T07:44:17;22.70;50.10
68480;DHT22;55469;48.934;12.050;2022-07-06T07:46:45;22.60;50.20
68480;DHT22;55469;48.934;12.050;2022-07-06T07:49:11;22.60;50.20
68480;DHT22;55469;48.934;12.050;2022-07-06T07:51:36;22.70;50.40
68480;DHT22;55469;48.934;12.050;2022-07-06T07:54:02;22.70;50.40
68480;DHT22;55469;48.934;12.050;2022-07-06T07:56:28;22.60;50.30
68480;DHT22;55469;48.934;12.050;2022-07-06T07:58:54;22.60;50.20
68480;DHT22;55469;48.934;12.050;2022-07-06T08:01:19;22.60;50.30
68480;DHT22;55469;48.934;12.050;2022-07-06T08:03:45;22.70;50.10
68480;DHT22;55469;48.934;12.050;2022-07-06T08:06:11;22.70;50.20
68480;DHT22;55469;48.934;12.050;2022-07-06T08:08:37;22.70;50.20
68480;DHT22;55469;48.934;12.050;2022-07-06T08:11:02;22.70;50.20
68480;DHT22;55469;48.934;12.050;2022-07-06T08:13:28;22.70;50.20
68480;DHT22;55469;48.934;12.050;2022-07-06T08:15:55;22.70;50.10
68480;DHT22;55469;48.934;12.050;2022-07-06T08:18:20;22.70;50.20
68480;DHT22;55469;48.934;12.050;2022-07-06T08:20:47;22.70;50.10
68480;DHT22;55469;48.934;12.050;2022-07-06T08:23:12;22.70;50.10
68480;DHT22;55469;48.934;12.050;2022-07-06T08:25:38;22.70;50.00
68480;DHT22;55469;48.934;12.050;2022-07-06T08:28:04;22.70;51.00
68480;DHT22;55469;48.934;12.050;2022-07-06T08:30:30;22.70;49.90
68480;DHT22;55469;48.934;12.050;2022-07-06T08:33:00;22.70;49.80
68480;DHT22;55469;48.934;12.050;2022-07-06T08:35:34;22.70;49.80
68480;DHT22;55469;48.934;12.050;2022-07-06T08:38:03;22.70;49.90
68480;DHT22;55469;48.934;12.050;2022-07-06T08:40:33;22.80;49.60
68480;DHT22;55469;48.934;12.050;2022-07-06T08:43:02;22.80;49.60
68480;DHT22;55469;48.934;12.050;2022-07-06T08:45:29;22.70;49.60
68480;DHT22;55469;48.934;12.050;2022-07-06T08:47:59;22.80;49.60
68480;DHT22;55469;48.934;12.050;2022-07-06T08:50:29;22.80;49.60
68480;DHT22;55469;48.934;12.050;2022-07-06T08:52:55;22.80;49.50
68480;DHT22;55469;48.934;12.050;2022-07-06T08:55:21;22.80;49.50
68480;DHT22;55469;48.934;12.050;2022-07-06T08:57:47;22.80;49.50
68480;DHT22;55469;48.934;12.050;2022-07-06T09:00:14;22.80;49.40
68480;DHT22;55469;48.934;12.050;2022-07-06T09:02:40;22.80;49.30
68480;DHT22;55469;48.934;12.050;2022-07-06T09:05:07;22.90;48.90
68480;DHT22;55469;48.934;12.050;2022-07-06T09:07:34;22.80;49.00
68480;DHT22;55469;48.934;12.050;2022-07-06T09:10:01;22.80;48.80
68480;DHT22;55469;48.934;12.050;2022-07-06T09:12:27;22.80;48.90
68480;DHT22;55469;48.934;12.050;2022-07-06T09:14:57;22.90;48.80
68480;DHT22;55469;48.934;12.050;2022-07-06T09:17:27;22.90;48.80
68480;DHT22;55469;48.934;12.050;2022-07-06T09:19:55;22.90;48.60
68480;DHT22;55469;48.934;12.050;2022-07-06T09:22:32;22.90;48.60
68480;DHT22;55469;48.934;12.050;2022-07-06T09:25:05;22.90;48.50
68480;DHT22;55469;48.934;12.050;2022-07-06T09:27:36;23.00;48.60
68480;DHT22;55469;48.934;12.050;2022-07-06T09:30:03;23.00;48.60
68480;DHT22;55469;48.934;12.050;2022-07-06T09:32:30;23.00;48.40
68480;DHT22;55469;48.934;12.050;2022-07-06T09:34:56;23.10;48.40
68480;DHT22;55469;48.934;12.050;2022-07-06T09:37:22;23.00;48.30
68480;DHT22;55469;48.934;12.050;2022-07-06T09:39:51;23.10;48.50
68480;DHT22;55469;48.934;12.050;2022-07-06T09:42:24;23.10;48.50
68480;DHT22;55469;48.934;12.050;2022-07-06T09:44:52;23.10;48.50
68480;DHT22;55469;48.934;12.050;2022-07-06T09:47:18;23.10;48.50
68480;DHT22;55469;48.934;12.050;2022-07-06T09:49:46;23.10;48.70
68480;DHT22;55469;48.934;12.050;2022-07-06T09:52:15;23.10;47.00
68480;DHT22;55469;48.934;12.050;2022-07-06T09:54:41;23.10;47.20
68480;DHT22;55469;48.934;12.050;2022-07-06T09:57:07;23.20;47.10
68480;DHT22;55469;48.934;12.050;2022-07-06T09:59:34;23.20;47.10
68480;DHT22;55469;48.934;12.050;2022-07-06T10:02:07;23.20;46.90
68480;DHT22;55469;48.934;12.050;2022-07-06T10:04:36;23.20;46.80
68480;DHT22;55469;48.934;12.050;2022-07-06T10:07:02;23.20;46.90
68480;DHT22;55469;48.934;12.050;2022-07-06T10:09:37;23.20;46.60
68480;DHT22;55469;48.934;12.050;2022-07-06T10:12:03;23.30;46.40
68480;DHT22;55469;48.934;12.050;2022-07-06T10:14:32;23.30;46.30
68480;DHT22;55469;48.934;12.050;2022-07-06T10:17:03;23.30;45.90
68480;DHT22;55469;48.934;12.050;2022-07-06T10:19:31;23.30;46.30
68480;DHT22;55469;48.934;12.050;2022-07-06T10:22:02;23.30;45.50
68480;DHT22;55469;48.934;12.050;2022-07-06T10:24:29;23.30;45.30
68480;DHT22;55469;48.934;12.050;2022-07-06T10:26:58;23.30;45.40
68480;DHT22;55469;48.934;12.050;2022-07-06T10:29:24;23.30;45.40
68480;DHT22;55469;48.934;12.050;2022-07-06T10:31:51;23.40;45.50
68480;DHT22;55469;48.934;12.050;2022-07-06T10:34:20;23.30;45.10
68480;DHT22;55469;48.934;12.050;2022-07-06T10:36:49;23.40;45.20
68480;DHT22;55469;48.934;12.050;2022-07-06T10:39:32;23.40;45.20
68480;DHT22;55469;48.934;12.050;2022-07-06T10:51:00;23.50;45.10
68480;DHT22;55469;48.934;12.050;2022-07-06T10:53:32;23.50;45.30
68480;DHT22;55469;48.934;12.050;2022-07-06T11:03:45;23.60;44.60
68480;DHT22;55469;48.934;12.050;2022-07-06T11:06:24;23.60;44.20
68480;DHT22;55469;48.934;12.050;2022-07-06T11:13:36;23.70;45.60
68480;DHT22;55469;48.934;12.050;2022-07-06T11:16:33;23.70;44.00
68480;DHT22;55469;48.934;12.050;2022-07-06T11:19:11;23.60;43.60
68480;DHT22;55469;48.934;12.050;2022-07-06T11:21:58;23.70;43.70
68480;DHT22;55469;48.934;12.050;2022-07-06T11:24:50;23.70;43.80
68480;DHT22;55469;48.934;12.050;2022-07-06T11:27:23;23.70;44.00
68480;DHT22;55469;48.934;12.050;2022-07-06T11:29:49;23.70;43.70
68480;DHT22;55469;48.934;12.050;2022-07-06T11:32:46;23.70;43.70
68480;DHT22;55469;48.934;12.050;2022-07-06T11:36:35;23.80;43.50
68480;DHT22;55469;48.934;12.050;2022-07-06T11:39:38;23.80;44.00
68480;DHT22;55469;48.934;12.050;2022-07-06T11:42:37;23.90;44.00
68480;DHT22;55469;48.934;12.050;2022-07-06T11:45:06;23.90;43.30
68480;DHT22;55469;48.934;12.050;2022-07-06T11:47:32;23.90;43.50
68480;DHT22;55469;48.934;12.050;2022-07-06T11:50:04;23.90;43.50
68480;DHT22;55469;48.934;12.050;2022-07-06T11:52:36;23.90;43.50
68480;DHT22;55469;48.934;12.050;2022-07-06T11:55:02;23.90;43.40
68480;DHT22;55469;48.934;12.050;2022-07-06T11:57:32;24.00;43.50
68480;DHT22;55469;48.934;12.050;2022-07-06T12:00:04;24.00;43.60
68480;DHT22;55469;48.934;12.050;2022-07-06T12:02:59;24.00;43.60
68480;DHT22;55469;48.934;12.050;2022-07-06T12:05:48;24.00;43.30
68480;DHT22;55469;48.934;12.050;2022-07-06T12:12:06;24.00;43.10
68480;DHT22;55469;48.934;12.050;2022-07-06T12:14:56;24.10;43.00
68480;DHT22;55469;48.934;12.050;2022-07-06T12:17:25;24.00;42.70
68480;DHT22;55469;48.934;12.050;2022-07-06T12:20:01;24.10;43.10
68480;DHT22;55469;48.934;12.050;2022-07-06T12:22:27;24.10;43.00
68480;DHT22;55469;48.934;12.050;2022-07-06T12:28:30;24.10;43.30
68480;DHT22;55469;48.934;12.050;2022-07-06T12:30:57;24.20;42.70
68480;DHT22;55469;48.934;12.050;2022-07-06T12:33:30;24.20;42.80
68480;DHT22;55469;48.934;12.050;2022-07-06T12:36:10;24.20;42.90
68480;DHT22;55469;48.934;12.050;2022-07-06T12:38:49;24.30;43.20
68480;DHT22;55469;48.934;12.050;2022-07-06T12:41:34;24.30;42.60
68480;DHT22;55469;48.934;12.050;2022-07-06T12:44:06;24.30;42.40
68480;DHT22;55469;48.934;12.050;2022-07-06T12:46:35;24.30;43.20
68480;DHT22;55469;48.934;12.050;2022-07-06T12:49:17;24.40;43.00
68480;DHT22;55469;48.934;12.050;2022-07-06T12:57:21;24.40;42.10
68480;DHT22;55469;48.934;12.050;2022-07-06T12:59:56;24.40;42.20
68480;DHT22;55469;48.934;12.050;2022-07-06T13:05:06;24.40;41.90
68480;DHT22;55469;48.934;12.050;2022-07-06T13:07:35;24.40;42.30
68480;DHT22;55469;48.934;12.050;2022-07-06T13:10:09;24.40;42.50
68480;DHT22;55469;48.934;12.050;2022-07-06T13:12:36;24.50;42.40
68480;DHT22;55469;48.934;12.050;2022-07-06T13:15:05;24.50;42.40
68480;DHT22;55469;48.934;12.050;2022-07-06T13:17:31;24.50;42.40
68480;DHT22;55469;48.934;12.050;2022-07-06T13:19:58;24.60;42.10
68480;DHT22;55469;48.934;12.050;2022-07-06T13:22:24;24.60;42.30
68480;DHT22;55469;48.934;12.050;2022-07-06T13:25:17;24.50;41.90
68480;DHT22;55469;48.934;12.050;2022-07-06T13:27:43;24.60;41.60
68480;DHT22;55469;48.934;12.050;2022-07-06T13:30:10;24.60;41.90
68480;DHT22;55469;48.934;12.050;2022-07-06T13:32:36;24.60;41.80
68480;DHT22;55469;48.934;12.050;2022-07-06T13:35:45;24.70;41.90
68480;DHT22;55469;48.934;12.050;2022-07-06T13:39:28;24.70;42.00
68480;DHT22;55469;48.934;12.050;2022-07-06T13:46:10;24.80;42.30
68480;DHT22;55469;48.934;12.050;2022-07-06T13:52:30;24.80;42.00
68480;DHT22;55469;48.934;12.050;2022-07-06T13:54:58;24.90;42.00
68480;DHT22;55469;48.934;12.050;2022-07-06T13:57:24;24.90;41.60
68480;DHT22;55469;48.934;12.050;2022-07-06T13:59:49;24.90;41.30
68480;DHT22;55469;48.934;12.050;2022-07-06T14:02:15;24.90;41.40
68480;DHT22;55469;48.934;12.050;2022-07-06T14:04:41;25.00;41.70
68480;DHT22;55469;48.934;12.050;2022-07-06T14:07:07;25.00;41.20
68480;DHT22;55469;48.934;12.050;2022-07-06T14:09:33;25.00;41.10
68480;DHT22;55469;48.934;12.050;2022-07-06T14:11:58;25.00;41.20
68480;DHT22;55469;48.934;12.050;2022-07-06T14:14:25;25.00;41.40
68480;DHT22;55469;48.934;12.050;2022-07-06T14:16:51;25.00;41.00
68480;DHT22;55469;48.934;12.050;2022-07-06T14:19:17;25.00;41.20
68480;DHT22;55469;48.934;12.050;2022-07-06T14:21:45;25.00;40.90
68480;DHT22;55469;48.934;12.050;2022-07-06T14:24:11;25.00;41.10
68480;DHT22;55469;48.934;12.050;2022-07-06T14:26:37;25.00;41.20
68480;DHT22;55469;48.934;12.050;2022-07-06T14:29:03;25.00;41.20
68480;DHT22;55469;48.934;12.050;2022-07-06T14:31:28;25.00;41.00
68480;DHT22;55469;48.934;12.050;2022-07-06T14:33:54;25.00;40.80
68480;DHT22;55469;48.934;12.050;2022-07-06T14:36:20;25.10;41.20
68480;DHT22;55469;48.934;12.050;2022-07-06T14:38:46;25.10;40.70
68480;DHT22;55469;48.934;12.050;2022-07-06T14:41:12;25.10;40.50
68480;DHT22;55469;48.934;12.050;2022-07-06T14:43:38;25.10;40.60
68480;DHT22;55469;48.934;12.050;2022-07-06T14:46:04;25.10;40.80
68480;DHT22;55469;48.934;12.050;2022-07-06T14:48:30;25.20;41.00
68480;DHT22;55469;48.934;12.050;2022-07-06T14:50:55;25.10;40.80
68480;DHT22;55469;48.934;12.050;2022-07-06T14:53:23;25.20;40.90
68480;DHT22;55469;48.934;12.050;2022-07-06T14:55:49;25.20;40.70
68480;DHT22;55469;48.934;12.050;2022-07-06T14:58:15;25.20;40.80
68480;DHT22;55469;48.934;12.050;2022-07-06T15:00:46;25.20;40.90
68480;DHT22;55469;48.934;12.050;2022-07-06T15:03:12;25.20;40.90
68480;DHT22;55469;48.934;12.050;2022-07-06T15:05:38;25.10;40.50
68480;DHT22;55469;48.934;12.050;2022-07-06T15:08:05;25.20;40.80
68480;DHT22;55469;48.934;12.050;2022-07-06T15:10:31;25.20;41.20
68480;DHT22;55469;48.934;12.050;2022-07-06T15:12:57;25.30;41.00
68480;DHT22;55469;48.934;12.050;2022-07-06T15:15:23;25.30;41.20
68480;DHT22;55469;48.934;12.050;2022-07-06T15:17:49;25.30;41.00
68480;DHT22;55469;48.934;12.050;2022-07-06T15:20:15;25.30;40.90
68480;DHT22;55469;48.934;12.050;2022-07-06T15:22:42;25.40;40.90
68480;DHT22;55469;48.934;12.050;2022-07-06T15:25:08;25.30;40.70
68480;DHT22;55469;48.934;12.050;2022-07-06T15:27:35;25.40;40.70
68480;DHT22;55469;48.934;12.050;2022-07-06T15:30:09;25.40;40.70
68480;DHT22;55469;48.934;12.050;2022-07-06T15:32:35;25.40;40.50
68480;DHT22;55469;48.934;12.050;2022-07-06T15:35:03;25.40;40.50
68480;DHT22;55469;48.934;12.050;2022-07-06T15:37:32;25.50;40.70
68480;DHT22;55469;48.934;12.050;2022-07-06T15:40:00;25.50;40.50
68480;DHT22;55469;48.934;12.050;2022-07-06T15:42:28;25.50;40.70
68480;DHT22;55469;48.934;12.050;2022-07-06T15:44:54;25.50;40.10
68480;DHT22;55469;48.934;12.050;2022-07-06T15:47:20;25.60;40.20
68480;DHT22;55469;48.934;12.050;2022-07-06T15:49:49;25.60;40.30
68480;DHT22;55469;48.934;12.050;2022-07-06T15:52:15;25.60;40.50
68480;DHT22;55469;48.934;12.050;2022-07-06T15:54:52;25.60;40.40
68480;DHT22;55469;48.934;12.050;2022-07-06T15:57:18;25.70;40.40
68480;DHT22;55469;48.934;12.050;2022-07-06T15:59:43;25.60;40.60
68480;DHT22;55469;48.934;12.050;2022-07-06T16:02:09;25.70;40.50
68480;DHT22;55469;48.934;12.050;2022-07-06T16:04:35;25.70;40.40
68480;DHT22;55469;48.934;12.050;2022-07-06T16:07:27;25.70;40.60
68480;DHT22;55469;48.934;12.050;2022-07-06T16:10:15;25.70;40.30
68480;DHT22;55469;48.934;12.050;2022-07-06T16:12:44;25.80;40.30
68480;DHT22;55469;48.934;12.050;2022-07-06T16:15:11;25.80;40.30
68480;DHT22;55469;48.934;12.050;2022-07-06T16:17:37;25.80;40.30
68480;DHT22;55469;48.934;12.050;2022-07-06T16:20:03;25.80;40.30
68480;DHT22;55469;48.934;12.050;2022-07-06T16:22:30;25.80;39.70